CPA234 VHHH-RJTT
Flight info
| Callsign | CPA234 |
|---|---|
| Flight time | N/A |
| Altitude | 39000 |
| Route | DALOL1X DALOL V631 ENVAR M750 LEKOS/N0481F410 M750 BILLY Y21 AKSEL AKSELN |
| Aircraft | A35K/H-SDE2E3GHIJ3J4J5LM1ORWXY/LB1D1 |
Departure
| Time | 2026-05-04 13:30 |
|---|---|
| Airport | Hong Kong International Airport (VHHH) |
Arrival
| Time | N/A |
|---|---|
| Airport | Tokyo Haneda International Airport (RJTT) |
| Time | Latitude | Longitude | Altitude | Speed | Heading |
|---|---|---|---|---|---|
| 2026-05-04 13:16 | 22.30566 | 113.91352 | 36 ft | 0 kts | 68° |
| 2026-05-04 13:21 | 22.30564 | 113.91346 | 36 ft | 1 kts | 68° |
| 2026-05-04 13:21 | 22.30561 | 113.91337 | 35 ft | 1 kts | 68° |
| 2026-05-04 13:22 | 22.30559 | 113.91332 | 35 ft | 2 kts | 68° |
| 2026-05-04 13:22 | 22.30552 | 113.91314 | 34 ft | 3 kts | 80° |
| 2026-05-04 13:22 | 22.30549 | 113.91294 | 33 ft | 3 kts | 98° |
| 2026-05-04 13:22 | 22.30554 | 113.91274 | 33 ft | 3 kts | 108° |
| 2026-05-04 13:23 | 22.30562 | 113.91255 | 34 ft | 3 kts | 139° |
| 2026-05-04 13:23 | 22.30572 | 113.91247 | 35 ft | 0 kts | 157° |
| 2026-05-04 13:24 | 22.30563 | 113.91251 | 35 ft | 3 kts | 157° |
| 2026-05-04 13:25 | 22.30466 | 113.91288 | 36 ft | 10 kts | 159° |
| 2026-05-04 13:25 | 22.30397 | 113.91292 | 36 ft | 8 kts | 213° |
| 2026-05-04 13:25 | 22.30364 | 113.91237 | 36 ft | 9 kts | 249° |
| 2026-05-04 13:25 | 22.30336 | 113.91161 | 36 ft | 12 kts | 249° |
| 2026-05-04 13:26 | 22.30299 | 113.91037 | 36 ft | 22 kts | 251° |
| 2026-05-04 13:26 | 22.30246 | 113.90872 | 36 ft | 24 kts | 250° |
| 2026-05-04 13:26 | 22.30185 | 113.90731 | 36 ft | 8 kts | 213° |
| 2026-05-04 13:26 | 22.30136 | 113.90727 | 36 ft | 8 kts | 187° |
| 2026-05-04 13:27 | 22.30094 | 113.90685 | 36 ft | 9 kts | 248° |
| 2026-05-04 13:27 | 22.30069 | 113.90612 | 36 ft | 12 kts | 251° |
| 2026-05-04 13:27 | 22.30038 | 113.90513 | 36 ft | 15 kts | 251° |
| 2026-05-04 13:27 | 22.29998 | 113.90394 | 36 ft | 18 kts | 250° |
| 2026-05-04 13:28 | 22.29952 | 113.90256 | 36 ft | 21 kts | 252° |
| 2026-05-04 13:28 | 22.29903 | 113.90098 | 35 ft | 23 kts | 250° |
| 2026-05-04 13:28 | 22.29848 | 113.89926 | 36 ft | 26 kts | 251° |
| 2026-05-04 13:28 | 22.29795 | 113.89780 | 36 ft | 14 kts | 232° |
| 2026-05-04 13:29 | 22.29738 | 113.89772 | 36 ft | 8 kts | 163° |
| 2026-05-04 13:29 | 22.29675 | 113.89795 | 36 ft | 11 kts | 161° |
| 2026-05-04 13:29 | 22.29644 | 113.89859 | 36 ft | 11 kts | 86° |
| 2026-05-04 13:29 | 22.29665 | 113.89942 | 36 ft | 13 kts | 71° |
| 2026-05-04 13:30 | 22.29734 | 113.90153 | 34 ft | 61 kts | 71° |
| 2026-05-04 13:30 | 22.29953 | 113.90833 | 37 ft | 128 kts | 71° |
| 2026-05-04 13:30 | 22.30309 | 113.91918 | 242 ft | 167 kts | 71° |
| 2026-05-04 13:30 | 22.30740 | 113.93100 | 1017 ft | 169 kts | 68° |
| 2026-05-04 13:31 | 22.30863 | 113.94325 | 1813 ft | 164 kts | 98° |
| 2026-05-04 13:31 | 22.30348 | 113.95428 | 2301 ft | 172 kts | 124° |
| 2026-05-04 13:31 | 22.29527 | 113.96471 | 2564 ft | 195 kts | 130° |
| 2026-05-04 13:31 | 22.28551 | 113.97604 | 2868 ft | 216 kts | 131° |
| 2026-05-04 13:32 | 22.27508 | 113.98879 | 3188 ft | 237 kts | 130° |
| 2026-05-04 13:32 | 22.26456 | 114.00292 | 3653 ft | 250 kts | 128° |
| 2026-05-04 13:32 | 22.25414 | 114.01832 | 4229 ft | 258 kts | 127° |
| 2026-05-04 13:32 | 22.24386 | 114.03454 | 4773 ft | 266 kts | 126° |
| 2026-05-04 13:33 | 22.23351 | 114.05146 | 5301 ft | 273 kts | 125° |
| 2026-05-04 13:33 | 22.22302 | 114.06889 | 5908 ft | 279 kts | 124° |
| 2026-05-04 13:33 | 22.21237 | 114.08677 | 6452 ft | 287 kts | 124° |
| 2026-05-04 13:33 | 22.20143 | 114.10503 | 7036 ft | 292 kts | 125° |
| 2026-05-04 13:34 | 22.19027 | 114.12346 | 7683 ft | 294 kts | 125° |
| 2026-05-04 13:34 | 22.17900 | 114.14198 | 8272 ft | 298 kts | 126° |
| 2026-05-04 13:34 | 22.16750 | 114.16079 | 8898 ft | 300 kts | 126° |
| 2026-05-04 13:34 | 22.15590 | 114.17967 | 9568 ft | 303 kts | 126° |
| 2026-05-04 13:35 | 22.14433 | 114.19844 | 10158 ft | 307 kts | 126° |
| 2026-05-04 13:35 | 22.11948 | 114.23860 | 10733 ft | 336 kts | 126° |
| 2026-05-04 13:35 | 22.10623 | 114.26003 | 10989 ft | 350 kts | 126° |
| 2026-05-04 13:36 | 22.09243 | 114.28238 | 11228 ft | 363 kts | 126° |
| 2026-05-04 13:36 | 22.07844 | 114.30507 | 11564 ft | 372 kts | 126° |
| 2026-05-04 13:36 | 22.06404 | 114.32847 | 12003 ft | 376 kts | 126° |
| 2026-05-04 13:36 | 22.04947 | 114.35215 | 12468 ft | 380 kts | 126° |
| 2026-05-04 13:37 | 22.03472 | 114.37609 | 12920 ft | 384 kts | 126° |
| 2026-05-04 13:37 | 22.01984 | 114.40023 | 13394 ft | 387 kts | 126° |
| 2026-05-04 13:37 | 22.00506 | 114.42417 | 13862 ft | 390 kts | 126° |
| 2026-05-04 13:37 | 21.99488 | 114.44066 | 14111 ft | 392 kts | 126° |
| 2026-05-04 13:38 | 21.97475 | 114.47324 | 14664 ft | 396 kts | 126° |
| 2026-05-04 13:38 | 21.95940 | 114.49805 | 15079 ft | 398 kts | 127° |
| 2026-05-04 13:38 | 21.94394 | 114.52304 | 15491 ft | 401 kts | 126° |
| 2026-05-04 13:38 | 21.92833 | 114.54825 | 15896 ft | 404 kts | 127° |
| 2026-05-04 13:39 | 21.91285 | 114.57325 | 16303 ft | 406 kts | 127° |
| 2026-05-04 13:39 | 21.89705 | 114.59874 | 16722 ft | 409 kts | 127° |
| 2026-05-04 13:39 | 21.88115 | 114.62439 | 17133 ft | 411 kts | 127° |
| 2026-05-04 13:39 | 21.86540 | 114.64978 | 17528 ft | 414 kts | 127° |
| 2026-05-04 13:40 | 21.84934 | 114.67567 | 17940 ft | 417 kts | 127° |
| 2026-05-04 13:40 | 21.83317 | 114.70170 | 18330 ft | 419 kts | 127° |
| 2026-05-04 13:40 | 21.81687 | 114.72794 | 18671 ft | 422 kts | 127° |
| 2026-05-04 13:40 | 21.80046 | 114.75435 | 19001 ft | 425 kts | 127° |
| 2026-05-04 13:41 | 21.78395 | 114.78092 | 19338 ft | 427 kts | 127° |
| 2026-05-04 13:41 | 21.76819 | 114.80777 | 19652 ft | 431 kts | 122° |
| 2026-05-04 13:41 | 21.75523 | 114.83713 | 20016 ft | 436 kts | 113° |
| 2026-05-04 13:42 | 21.74676 | 114.86833 | 20350 ft | 441 kts | 103° |